sensor_id;sensor_type;location;lat;lon;timestamp;P1;durP1;ratioP1;P2;durP2;ratioP2
75171;SDS011;63750;52.418;20.742;2022-12-16T00:01:52;92.10;;;61.40;;
75171;SDS011;63750;52.418;20.742;2022-12-16T00:04:21;86.30;;;59.40;;
75171;SDS011;63750;52.418;20.742;2022-12-16T00:06:50;90.90;;;58.90;;
75171;SDS011;63750;52.418;20.742;2022-12-16T00:09:18;86.20;;;56.60;;
75171;SDS011;63750;52.418;20.742;2022-12-16T00:11:46;89.50;;;59.10;;
75171;SDS011;63750;52.418;20.742;2022-12-16T00:14:15;90.50;;;57.30;;
75171;SDS011;63750;52.418;20.742;2022-12-16T00:16:43;91.00;;;59.80;;
75171;SDS011;63750;52.418;20.742;2022-12-16T00:19:12;96.20;;;62.00;;
75171;SDS011;63750;52.418;20.742;2022-12-16T00:21:40;102.40;;;65.20;;
75171;SDS011;63750;52.418;20.742;2022-12-16T00:24:09;108.00;;;66.80;;
75171;SDS011;63750;52.418;20.742;2022-12-16T00:26:37;112.20;;;69.50;;
75171;SDS011;63750;52.418;20.742;2022-12-16T00:29:06;108.70;;;67.80;;
75171;SDS011;63750;52.418;20.742;2022-12-16T00:31:34;107.00;;;63.30;;
75171;SDS011;63750;52.418;20.742;2022-12-16T00:34:02;103.60;;;64.70;;
75171;SDS011;63750;52.418;20.742;2022-12-16T00:36:31;108.60;;;66.00;;
75171;SDS011;63750;52.418;20.742;2022-12-16T00:38:59;104.70;;;64.90;;
75171;SDS011;63750;52.418;20.742;2022-12-16T00:41:28;100.50;;;63.20;;
75171;SDS011;63750;52.418;20.742;2022-12-16T00:43:56;97.10;;;61.40;;
75171;SDS011;63750;52.418;20.742;2022-12-16T00:46:24;95.60;;;60.30;;
75171;SDS011;63750;52.418;20.742;2022-12-16T00:48:53;93.40;;;59.50;;
75171;SDS011;63750;52.418;20.742;2022-12-16T00:51:21;91.00;;;58.80;;
75171;SDS011;63750;52.418;20.742;2022-12-16T00:53:50;86.00;;;56.60;;
75171;SDS011;63750;52.418;20.742;2022-12-16T00:56:19;86.70;;;56.90;;
75171;SDS011;63750;52.418;20.742;2022-12-16T00:58:47;86.70;;;56.60;;
75171;SDS011;63750;52.418;20.742;2022-12-16T01:01:15;85.80;;;56.40;;
75171;SDS011;63750;52.418;20.742;2022-12-16T01:03:44;89.10;;;56.80;;
75171;SDS011;63750;52.418;20.742;2022-12-16T01:06:13;83.50;;;55.70;;
75171;SDS011;63750;52.418;20.742;2022-12-16T01:08:44;91.70;;;58.50;;
75171;SDS011;63750;52.418;20.742;2022-12-16T01:11:14;84.70;;;57.10;;
75171;SDS011;63750;52.418;20.742;2022-12-16T01:13:45;87.60;;;55.20;;
75171;SDS011;63750;52.418;20.742;2022-12-16T01:16:16;87.70;;;55.30;;
75171;SDS011;63750;52.418;20.742;2022-12-16T01:18:45;85.90;;;55.40;;
75171;SDS011;63750;52.418;20.742;2022-12-16T01:21:18;82.80;;;54.70;;
75171;SDS011;63750;52.418;20.742;2022-12-16T01:23:47;88.40;;;55.40;;
75171;SDS011;63750;52.418;20.742;2022-12-16T01:26:16;86.80;;;57.10;;
75171;SDS011;63750;52.418;20.742;2022-12-16T01:28:49;89.40;;;53.90;;
75171;SDS011;63750;52.418;20.742;2022-12-16T01:31:18;80.10;;;52.50;;
75171;SDS011;63750;52.418;20.742;2022-12-16T01:33:48;83.30;;;53.90;;
75171;SDS011;63750;52.418;20.742;2022-12-16T01:36:18;85.10;;;53.10;;
75171;SDS011;63750;52.418;20.742;2022-12-16T01:38:49;80.20;;;52.30;;
75171;SDS011;63750;52.418;20.742;2022-12-16T01:41:17;76.20;;;50.60;;
75171;SDS011;63750;52.418;20.742;2022-12-16T01:43:46;77.90;;;48.10;;
75171;SDS011;63750;52.418;20.742;2022-12-16T01:46:17;78.20;;;51.20;;
75171;SDS011;63750;52.418;20.742;2022-12-16T01:48:49;76.60;;;48.60;;
75171;SDS011;63750;52.418;20.742;2022-12-16T01:51:22;72.70;;;48.70;;
75171;SDS011;63750;52.418;20.742;2022-12-16T01:53:54;71.20;;;48.30;;
75171;SDS011;63750;52.418;20.742;2022-12-16T01:56:28;69.10;;;46.60;;
75171;SDS011;63750;52.418;20.742;2022-12-16T01:59:01;71.40;;;47.00;;
75171;SDS011;63750;52.418;20.742;2022-12-16T02:01:30;73.50;;;46.90;;
75171;SDS011;63750;52.418;20.742;2022-12-16T02:04:00;70.60;;;45.70;;
75171;SDS011;63750;52.418;20.742;2022-12-16T02:06:30;67.10;;;46.30;;
75171;SDS011;63750;52.418;20.742;2022-12-16T02:09:00;73.60;;;46.90;;
75171;SDS011;63750;52.418;20.742;2022-12-16T02:11:37;67.80;;;46.30;;
75171;SDS011;63750;52.418;20.742;2022-12-16T02:14:24;73.50;;;49.10;;
75171;SDS011;63750;52.418;20.742;2022-12-16T02:17:06;76.00;;;48.10;;
75171;SDS011;63750;52.418;20.742;2022-12-16T02:19:50;68.30;;;46.50;;
75171;SDS011;63750;52.418;20.742;2022-12-16T02:22:35;67.80;;;46.90;;
75171;SDS011;63750;52.418;20.742;2022-12-16T02:25:20;74.50;;;48.30;;
75171;SDS011;63750;52.418;20.742;2022-12-16T02:28:08;76.00;;;47.40;;
75171;SDS011;63750;52.418;20.742;2022-12-16T02:30:55;71.70;;;47.70;;
75171;SDS011;63750;52.418;20.742;2022-12-16T02:33:36;75.20;;;48.10;;
75171;SDS011;63750;52.418;20.742;2022-12-16T02:36:14;71.90;;;48.30;;
75171;SDS011;63750;52.418;20.742;2022-12-16T02:38:53;76.00;;;49.50;;
75171;SDS011;63750;52.418;20.742;2022-12-16T02:41:27;73.50;;;47.20;;
75171;SDS011;63750;52.418;20.742;2022-12-16T02:44:03;74.00;;;49.80;;
75171;SDS011;63750;52.418;20.742;2022-12-16T02:46:38;72.70;;;50.20;;
75171;SDS011;63750;52.418;20.742;2022-12-16T02:52:16;70.30;;;47.00;;
75171;SDS011;63750;52.418;20.742;2022-12-16T02:54:47;69.70;;;46.70;;
75171;SDS011;63750;52.418;20.742;2022-12-16T02:57:25;73.70;;;47.20;;
75171;SDS011;63750;52.418;20.742;2022-12-16T03:00:08;69.60;;;47.30;;
75171;SDS011;63750;52.418;20.742;2022-12-16T03:02:44;72.60;;;47.40;;
75171;SDS011;63750;52.418;20.742;2022-12-16T03:05:20;72.20;;;46.10;;
75171;SDS011;63750;52.418;20.742;2022-12-16T03:07:53;66.80;;;44.80;;
75171;SDS011;63750;52.418;20.742;2022-12-16T03:10:25;70.20;;;45.60;;
75171;SDS011;63750;52.418;20.742;2022-12-16T03:12:57;71.70;;;45.70;;
75171;SDS011;63750;52.418;20.742;2022-12-16T03:15:29;66.00;;;44.70;;
75171;SDS011;63750;52.418;20.742;2022-12-16T03:18:00;67.30;;;44.60;;
75171;SDS011;63750;52.418;20.742;2022-12-16T03:20:32;67.00;;;45.60;;
75171;SDS011;63750;52.418;20.742;2022-12-16T03:23:07;69.60;;;44.90;;
75171;SDS011;63750;52.418;20.742;2022-12-16T03:25:40;69.00;;;44.90;;
75171;SDS011;63750;52.418;20.742;2022-12-16T03:28:14;69.60;;;44.80;;
75171;SDS011;63750;52.418;20.742;2022-12-16T03:30:55;70.20;;;44.80;;
75171;SDS011;63750;52.418;20.742;2022-12-16T03:33:32;70.00;;;44.10;;
75171;SDS011;63750;52.418;20.742;2022-12-16T03:36:08;68.90;;;44.20;;
75171;SDS011;63750;52.418;20.742;2022-12-16T03:38:40;68.30;;;43.80;;
75171;SDS011;63750;52.418;20.742;2022-12-16T03:41:12;74.70;;;44.00;;
75171;SDS011;63750;52.418;20.742;2022-12-16T03:43:42;68.20;;;44.10;;
75171;SDS011;63750;52.418;20.742;2022-12-16T03:46:11;71.40;;;45.00;;
75171;SDS011;63750;52.418;20.742;2022-12-16T03:48:45;65.30;;;43.60;;
75171;SDS011;63750;52.418;20.742;2022-12-16T03:51:14;69.70;;;44.00;;
75171;SDS011;63750;52.418;20.742;2022-12-16T03:53:43;65.90;;;42.10;;
75171;SDS011;63750;52.418;20.742;2022-12-16T03:56:12;70.10;;;43.90;;
75171;SDS011;63750;52.418;20.742;2022-12-16T03:58:40;68.30;;;44.20;;
75171;SDS011;63750;52.418;20.742;2022-12-16T04:01:09;66.30;;;44.60;;
75171;SDS011;63750;52.418;20.742;2022-12-16T04:03:38;65.00;;;42.60;;
75171;SDS011;63750;52.418;20.742;2022-12-16T04:06:07;62.80;;;42.90;;
75171;SDS011;63750;52.418;20.742;2022-12-16T04:08:35;66.70;;;42.70;;
75171;SDS011;63750;52.418;20.742;2022-12-16T04:11:03;65.50;;;41.50;;
75171;SDS011;63750;52.418;20.742;2022-12-16T04:13:32;66.20;;;42.40;;
75171;SDS011;63750;52.418;20.742;2022-12-16T04:16:00;63.80;;;40.60;;
75171;SDS011;63750;52.418;20.742;2022-12-16T04:18:29;62.30;;;41.40;;
75171;SDS011;63750;52.418;20.742;2022-12-16T04:20:58;66.80;;;43.10;;
75171;SDS011;63750;52.418;20.742;2022-12-16T04:23:28;64.40;;;41.40;;
75171;SDS011;63750;52.418;20.742;2022-12-16T04:25:57;70.40;;;42.50;;
75171;SDS011;63750;52.418;20.742;2022-12-16T04:28:26;69.30;;;43.70;;
75171;SDS011;63750;52.418;20.742;2022-12-16T04:30:55;66.10;;;40.60;;
75171;SDS011;63750;52.418;20.742;2022-12-16T04:33:23;67.20;;;40.90;;
75171;SDS011;63750;52.418;20.742;2022-12-16T04:35:52;59.90;;;39.50;;
75171;SDS011;63750;52.418;20.742;2022-12-16T04:38:20;68.40;;;42.80;;
75171;SDS011;63750;52.418;20.742;2022-12-16T04:40:49;62.20;;;39.90;;
75171;SDS011;63750;52.418;20.742;2022-12-16T04:43:17;65.50;;;42.00;;
75171;SDS011;63750;52.418;20.742;2022-12-16T04:45:46;62.90;;;40.90;;
75171;SDS011;63750;52.418;20.742;2022-12-16T04:48:14;66.40;;;41.70;;
75171;SDS011;63750;52.418;20.742;2022-12-16T04:50:43;64.30;;;42.60;;
75171;SDS011;63750;52.418;20.742;2022-12-16T04:53:11;67.80;;;42.40;;
75171;SDS011;63750;52.418;20.742;2022-12-16T04:55:40;65.10;;;41.30;;
75171;SDS011;63750;52.418;20.742;2022-12-16T04:58:08;61.60;;;39.70;;
75171;SDS011;63750;52.418;20.742;2022-12-16T05:00:38;59.00;;;40.00;;
75171;SDS011;63750;52.418;20.742;2022-12-16T05:03:07;67.20;;;41.30;;
75171;SDS011;63750;52.418;20.742;2022-12-16T05:05:36;63.80;;;40.80;;
75171;SDS011;63750;52.418;20.742;2022-12-16T05:08:05;65.70;;;40.40;;
75171;SDS011;63750;52.418;20.742;2022-12-16T05:10:33;65.20;;;40.70;;
75171;SDS011;63750;52.418;20.742;2022-12-16T05:13:02;64.60;;;41.20;;
75171;SDS011;63750;52.418;20.742;2022-12-16T05:15:30;64.10;;;40.40;;
75171;SDS011;63750;52.418;20.742;2022-12-16T05:17:59;65.60;;;40.90;;
75171;SDS011;63750;52.418;20.742;2022-12-16T05:20:36;64.60;;;39.60;;
75171;SDS011;63750;52.418;20.742;2022-12-16T05:23:05;64.70;;;41.00;;
75171;SDS011;63750;52.418;20.742;2022-12-16T05:25:35;61.60;;;39.80;;
75171;SDS011;63750;52.418;20.742;2022-12-16T05:28:05;62.20;;;39.20;;
75171;SDS011;63750;52.418;20.742;2022-12-16T05:30:35;65.10;;;40.00;;
75171;SDS011;63750;52.418;20.742;2022-12-16T05:33:04;65.60;;;40.60;;
75171;SDS011;63750;52.418;20.742;2022-12-16T05:35:32;64.00;;;41.70;;
75171;SDS011;63750;52.418;20.742;2022-12-16T05:38:01;63.80;;;40.80;;
75171;SDS011;63750;52.418;20.742;2022-12-16T05:40:29;62.80;;;39.10;;
75171;SDS011;63750;52.418;20.742;2022-12-16T05:42:58;65.70;;;40.60;;
75171;SDS011;63750;52.418;20.742;2022-12-16T05:45:27;68.30;;;40.30;;
75171;SDS011;63750;52.418;20.742;2022-12-16T05:47:58;64.70;;;40.60;;
75171;SDS011;63750;52.418;20.742;2022-12-16T05:50:29;61.10;;;39.20;;
75171;SDS011;63750;52.418;20.742;2022-12-16T05:53:00;63.80;;;40.30;;
75171;SDS011;63750;52.418;20.742;2022-12-16T05:55:29;67.00;;;41.40;;
75171;SDS011;63750;52.418;20.742;2022-12-16T05:57:57;63.70;;;40.70;;
75171;SDS011;63750;52.418;20.742;2022-12-16T06:00:25;69.90;;;41.40;;
75171;SDS011;63750;52.418;20.742;2022-12-16T06:02:54;66.20;;;40.80;;
75171;SDS011;63750;52.418;20.742;2022-12-16T06:05:22;66.90;;;41.90;;
75171;SDS011;63750;52.418;20.742;2022-12-16T06:07:51;68.60;;;40.40;;
75171;SDS011;63750;52.418;20.742;2022-12-16T06:10:20;65.50;;;39.30;;
75171;SDS011;63750;52.418;20.742;2022-12-16T06:12:48;66.80;;;41.70;;
75171;SDS011;63750;52.418;20.742;2022-12-16T06:15:17;62.70;;;39.80;;
75171;SDS011;63750;52.418;20.742;2022-12-16T06:17:47;70.80;;;41.40;;
75171;SDS011;63750;52.418;20.742;2022-12-16T06:20:16;63.20;;;39.00;;
75171;SDS011;63750;52.418;20.742;2022-12-16T06:22:48;67.30;;;39.90;;
75171;SDS011;63750;52.418;20.742;2022-12-16T06:25:18;67.30;;;40.70;;
75171;SDS011;63750;52.418;20.742;2022-12-16T06:27:50;67.80;;;40.20;;
75171;SDS011;63750;52.418;20.742;2022-12-16T06:30:20;68.30;;;42.60;;
75171;SDS011;63750;52.418;20.742;2022-12-16T06:32:50;70.10;;;41.70;;
75171;SDS011;63750;52.418;20.742;2022-12-16T06:35:22;67.00;;;41.10;;
75171;SDS011;63750;52.418;20.742;2022-12-16T06:37:51;69.30;;;41.30;;
75171;SDS011;63750;52.418;20.742;2022-12-16T06:40:20;61.70;;;39.70;;
75171;SDS011;63750;52.418;20.742;2022-12-16T06:42:50;68.80;;;41.40;;
75171;SDS011;63750;52.418;20.742;2022-12-16T06:45:19;67.40;;;41.30;;
75171;SDS011;63750;52.418;20.742;2022-12-16T06:47:50;74.30;;;41.60;;
75171;SDS011;63750;52.418;20.742;2022-12-16T06:50:22;65.90;;;39.50;;
75171;SDS011;63750;52.418;20.742;2022-12-16T06:52:51;69.50;;;42.00;;
75171;SDS011;63750;52.418;20.742;2022-12-16T06:55:22;67.00;;;41.70;;
75171;SDS011;63750;52.418;20.742;2022-12-16T06:57:56;69.60;;;41.30;;
75171;SDS011;63750;52.418;20.742;2022-12-16T07:00:27;69.50;;;41.80;;
75171;SDS011;63750;52.418;20.742;2022-12-16T07:02:56;67.90;;;42.50;;
75171;SDS011;63750;52.418;20.742;2022-12-16T07:05:27;66.80;;;42.20;;
75171;SDS011;63750;52.418;20.742;2022-12-16T07:07:57;68.50;;;42.80;;
75171;SDS011;63750;52.418;20.742;2022-12-16T07:10:27;73.50;;;42.50;;
75171;SDS011;63750;52.418;20.742;2022-12-16T07:12:58;70.80;;;42.60;;
75171;SDS011;63750;52.418;20.742;2022-12-16T07:15:29;69.70;;;42.90;;
75171;SDS011;63750;52.418;20.742;2022-12-16T07:17:58;74.30;;;43.10;;
75171;SDS011;63750;52.418;20.742;2022-12-16T07:20:29;72.20;;;42.60;;
75171;SDS011;63750;52.418;20.742;2022-12-16T07:22:59;69.40;;;43.00;;
75171;SDS011;63750;52.418;20.742;2022-12-16T07:25:29;67.70;;;42.40;;
75171;SDS011;63750;52.418;20.742;2022-12-16T07:27:58;70.90;;;42.70;;
75171;SDS011;63750;52.418;20.742;2022-12-16T07:30:26;68.60;;;41.30;;
75171;SDS011;63750;52.418;20.742;2022-12-16T07:32:55;72.00;;;43.10;;
75171;SDS011;63750;52.418;20.742;2022-12-16T07:35:24;64.00;;;41.80;;
75171;SDS011;63750;52.418;20.742;2022-12-16T07:37:53;66.20;;;42.60;;
75171;SDS011;63750;52.418;20.742;2022-12-16T07:40:22;68.50;;;42.10;;
75171;SDS011;63750;52.418;20.742;2022-12-16T07:42:51;74.20;;;43.80;;
75171;SDS011;63750;52.418;20.742;2022-12-16T07:45:23;63.80;;;42.00;;
75171;SDS011;63750;52.418;20.742;2022-12-16T07:47:52;70.80;;;43.00;;
75171;SDS011;63750;52.418;20.742;2022-12-16T07:50:21;73.20;;;44.60;;
75171;SDS011;63750;52.418;20.742;2022-12-16T07:52:54;66.20;;;42.30;;
75171;SDS011;63750;52.418;20.742;2022-12-16T07:55:23;70.70;;;43.90;;
75171;SDS011;63750;52.418;20.742;2022-12-16T07:57:52;67.80;;;44.60;;
75171;SDS011;63750;52.418;20.742;2022-12-16T08:00:20;68.80;;;43.70;;
75171;SDS011;63750;52.418;20.742;2022-12-16T08:02:52;72.10;;;44.30;;
75171;SDS011;63750;52.418;20.742;2022-12-16T08:05:21;73.50;;;44.40;;
75171;SDS011;63750;52.418;20.742;2022-12-16T08:07:51;70.40;;;45.00;;
75171;SDS011;63750;52.418;20.742;2022-12-16T08:10:19;75.50;;;44.70;;
75171;SDS011;63750;52.418;20.742;2022-12-16T08:12:49;66.00;;;43.40;;
75171;SDS011;63750;52.418;20.742;2022-12-16T08:15:24;69.30;;;44.00;;
75171;SDS011;63750;52.418;20.742;2022-12-16T08:17:54;72.90;;;44.10;;
75171;SDS011;63750;52.418;20.742;2022-12-16T08:20:23;71.10;;;44.20;;
75171;SDS011;63750;52.418;20.742;2022-12-16T08:22:52;72.40;;;43.40;;
75171;SDS011;63750;52.418;20.742;2022-12-16T08:25:21;70.80;;;44.80;;
75171;SDS011;63750;52.418;20.742;2022-12-16T08:27:54;68.90;;;44.50;;
75171;SDS011;63750;52.418;20.742;2022-12-16T08:30:23;65.60;;;42.20;;
75171;SDS011;63750;52.418;20.742;2022-12-16T08:32:52;62.50;;;41.00;;
75171;SDS011;63750;52.418;20.742;2022-12-16T08:35:22;66.90;;;42.40;;
75171;SDS011;63750;52.418;20.742;2022-12-16T08:37:51;71.80;;;42.50;;
75171;SDS011;63750;52.418;20.742;2022-12-16T08:40:22;63.60;;;41.90;;
75171;SDS011;63750;52.418;20.742;2022-12-16T08:42:52;66.00;;;41.40;;
75171;SDS011;63750;52.418;20.742;2022-12-16T08:45:24;73.80;;;45.20;;
75171;SDS011;63750;52.418;20.742;2022-12-16T08:47:55;66.50;;;42.30;;
75171;SDS011;63750;52.418;20.742;2022-12-16T08:50:23;70.20;;;43.60;;
75171;SDS011;63750;52.418;20.742;2022-12-16T08:52:52;70.70;;;45.30;;
75171;SDS011;63750;52.418;20.742;2022-12-16T08:55:22;69.60;;;44.70;;
75171;SDS011;63750;52.418;20.742;2022-12-16T08:57:53;69.80;;;44.30;;
75171;SDS011;63750;52.418;20.742;2022-12-16T09:00:23;73.60;;;45.30;;
75171;SDS011;63750;52.418;20.742;2022-12-16T09:02:53;72.90;;;45.80;;
75171;SDS011;63750;52.418;20.742;2022-12-16T09:05:22;74.30;;;45.80;;
75171;SDS011;63750;52.418;20.742;2022-12-16T09:07:51;69.30;;;44.80;;
75171;SDS011;63750;52.418;20.742;2022-12-16T09:10:23;69.00;;;43.90;;
75171;SDS011;63750;52.418;20.742;2022-12-16T09:12:52;69.10;;;43.90;;
75171;SDS011;63750;52.418;20.742;2022-12-16T09:15:30;67.40;;;43.50;;
75171;SDS011;63750;52.418;20.742;2022-12-16T09:17:58;70.30;;;44.40;;
75171;SDS011;63750;52.418;20.742;2022-12-16T09:20:26;72.90;;;44.60;;
75171;SDS011;63750;52.418;20.742;2022-12-16T09:22:55;70.50;;;43.10;;
75171;SDS011;63750;52.418;20.742;2022-12-16T09:25:26;72.00;;;44.60;;
75171;SDS011;63750;52.418;20.742;2022-12-16T09:27:55;73.50;;;45.70;;
75171;SDS011;63750;52.418;20.742;2022-12-16T09:30:24;67.50;;;44.70;;
75171;SDS011;63750;52.418;20.742;2022-12-16T09:32:53;70.50;;;43.50;;
75171;SDS011;63750;52.418;20.742;2022-12-16T09:35:22;73.40;;;45.80;;
75171;SDS011;63750;52.418;20.742;2022-12-16T09:37:51;69.10;;;44.50;;
75171;SDS011;63750;52.418;20.742;2022-12-16T09:40:20;74.80;;;46.30;;
75171;SDS011;63750;52.418;20.742;2022-12-16T09:42:50;75.50;;;47.10;;
75171;SDS011;63750;52.418;20.742;2022-12-16T09:45:30;73.80;;;46.60;;
75171;SDS011;63750;52.418;20.742;2022-12-16T09:48:05;73.90;;;45.70;;
75171;SDS011;63750;52.418;20.742;2022-12-16T09:50:41;72.70;;;46.30;;
75171;SDS011;63750;52.418;20.742;2022-12-16T09:53:12;72.30;;;45.90;;
75171;SDS011;63750;52.418;20.742;2022-12-16T09:55:43;75.00;;;46.40;;
75171;SDS011;63750;52.418;20.742;2022-12-16T09:58:13;70.90;;;46.20;;
75171;SDS011;63750;52.418;20.742;2022-12-16T10:00:46;65.50;;;43.30;;
75171;SDS011;63750;52.418;20.742;2022-12-16T10:03:18;72.30;;;45.70;;
75171;SDS011;63750;52.418;20.742;2022-12-16T10:05:50;72.90;;;45.20;;
75171;SDS011;63750;52.418;20.742;2022-12-16T10:08:29;71.10;;;44.90;;
75171;SDS011;63750;52.418;20.742;2022-12-16T10:11:08;68.90;;;43.70;;
75171;SDS011;63750;52.418;20.742;2022-12-16T10:13:45;70.70;;;46.90;;
75171;SDS011;63750;52.418;20.742;2022-12-16T10:16:23;68.60;;;44.10;;
75171;SDS011;63750;52.418;20.742;2022-12-16T10:19:00;70.00;;;46.10;;
75171;SDS011;63750;52.418;20.742;2022-12-16T10:21:46;79.60;;;47.50;;
75171;SDS011;63750;52.418;20.742;2022-12-16T10:24:28;70.90;;;44.90;;
75171;SDS011;63750;52.418;20.742;2022-12-16T10:27:08;69.70;;;44.70;;
75171;SDS011;63750;52.418;20.742;2022-12-16T10:29:42;68.20;;;44.90;;
75171;SDS011;63750;52.418;20.742;2022-12-16T10:32:13;69.20;;;46.20;;
75171;SDS011;63750;52.418;20.742;2022-12-16T10:34:45;78.50;;;46.60;;
75171;SDS011;63750;52.418;20.742;2022-12-16T10:37:15;74.20;;;47.20;;
75171;SDS011;63750;52.418;20.742;2022-12-16T10:39:50;76.20;;;46.20;;
75171;SDS011;63750;52.418;20.742;2022-12-16T10:42:25;73.50;;;46.10;;
75171;SDS011;63750;52.418;20.742;2022-12-16T10:44:58;69.30;;;44.70;;
75171;SDS011;63750;52.418;20.742;2022-12-16T10:47:31;72.90;;;46.40;;
75171;SDS011;63750;52.418;20.742;2022-12-16T10:50:01;72.40;;;45.10;;
75171;SDS011;63750;52.418;20.742;2022-12-16T10:52:31;77.40;;;46.80;;
75171;SDS011;63750;52.418;20.742;2022-12-16T10:55:01;73.80;;;46.80;;
75171;SDS011;63750;52.418;20.742;2022-12-16T10:57:47;71.10;;;45.10;;
75171;SDS011;63750;52.418;20.742;2022-12-16T11:03:16;72.00;;;46.30;;
75171;SDS011;63750;52.418;20.742;2022-12-16T11:05:47;74.60;;;46.80;;
75171;SDS011;63750;52.418;20.742;2022-12-16T11:08:23;76.70;;;46.80;;
75171;SDS011;63750;52.418;20.742;2022-12-16T11:10:53;77.40;;;46.80;;
75171;SDS011;63750;52.418;20.742;2022-12-16T11:13:24;77.30;;;47.90;;
75171;SDS011;63750;52.418;20.742;2022-12-16T11:16:00;75.20;;;47.10;;
75171;SDS011;63750;52.418;20.742;2022-12-16T11:18:35;75.20;;;47.90;;
75171;SDS011;63750;52.418;20.742;2022-12-16T11:21:17;77.00;;;47.90;;
75171;SDS011;63750;52.418;20.742;2022-12-16T11:23:46;77.00;;;48.60;;
75171;SDS011;63750;52.418;20.742;2022-12-16T11:26:29;75.80;;;47.80;;
75171;SDS011;63750;52.418;20.742;2022-12-16T11:29:05;73.10;;;47.80;;
75171;SDS011;63750;52.418;20.742;2022-12-16T11:31:37;78.10;;;49.40;;
75171;SDS011;63750;52.418;20.742;2022-12-16T11:34:06;79.60;;;48.70;;
75171;SDS011;63750;52.418;20.742;2022-12-16T11:36:35;77.90;;;49.50;;
75171;SDS011;63750;52.418;20.742;2022-12-16T11:39:06;76.80;;;44.90;;
75171;SDS011;63750;52.418;20.742;2022-12-16T11:41:42;78.80;;;48.80;;
75171;SDS011;63750;52.418;20.742;2022-12-16T11:44:16;76.50;;;50.20;;
75171;SDS011;63750;52.418;20.742;2022-12-16T11:46:46;79.40;;;49.40;;
75171;SDS011;63750;52.418;20.742;2022-12-16T11:49:16;73.20;;;48.70;;
75171;SDS011;63750;52.418;20.742;2022-12-16T11:51:51;79.90;;;48.00;;
75171;SDS011;63750;52.418;20.742;2022-12-16T11:54:22;80.70;;;50.20;;
75171;SDS011;63750;52.418;20.742;2022-12-16T11:56:54;76.10;;;48.50;;
75171;SDS011;63750;52.418;20.742;2022-12-16T11:59:26;78.10;;;48.60;;
75171;SDS011;63750;52.418;20.742;2022-12-16T12:02:07;84.80;;;48.40;;
75171;SDS011;63750;52.418;20.742;2022-12-16T12:04:45;72.70;;;47.40;;
75171;SDS011;63750;52.418;20.742;2022-12-16T12:07:23;75.80;;;47.90;;
75171;SDS011;63750;52.418;20.742;2022-12-16T12:09:56;77.30;;;48.60;;
75171;SDS011;63750;52.418;20.742;2022-12-16T12:12:34;73.90;;;47.40;;
75171;SDS011;63750;52.418;20.742;2022-12-16T12:15:12;71.00;;;46.30;;
75171;SDS011;63750;52.418;20.742;2022-12-16T12:17:52;79.80;;;48.30;;
75171;SDS011;63750;52.418;20.742;2022-12-16T12:23:22;83.40;;;49.20;;
75171;SDS011;63750;52.418;20.742;2022-12-16T12:25:59;81.90;;;49.30;;
75171;SDS011;63750;52.418;20.742;2022-12-16T12:28:39;78.50;;;48.40;;
75171;SDS011;63750;52.418;20.742;2022-12-16T12:31:27;75.50;;;48.00;;
75171;SDS011;63750;52.418;20.742;2022-12-16T12:34:08;76.90;;;49.10;;
75171;SDS011;63750;52.418;20.742;2022-12-16T12:36:48;73.30;;;46.70;;
75171;SDS011;63750;52.418;20.742;2022-12-16T12:39:27;72.70;;;45.40;;
75171;SDS011;63750;52.418;20.742;2022-12-16T12:42:07;73.40;;;47.20;;
75171;SDS011;63750;52.418;20.742;2022-12-16T12:44:50;72.20;;;45.60;;
75171;SDS011;63750;52.418;20.742;2022-12-16T12:47:30;74.80;;;46.30;;
75171;SDS011;63750;52.418;20.742;2022-12-16T12:50:02;77.30;;;48.80;;
75171;SDS011;63750;52.418;20.742;2022-12-16T12:52:46;76.90;;;46.10;;
75171;SDS011;63750;52.418;20.742;2022-12-16T12:55:33;72.60;;;47.40;;
75171;SDS011;63750;52.418;20.742;2022-12-16T12:58:09;75.30;;;45.20;;
75171;SDS011;63750;52.418;20.742;2022-12-16T13:00:41;72.10;;;46.70;;
75171;SDS011;63750;52.418;20.742;2022-12-16T13:03:14;71.20;;;47.20;;
75171;SDS011;63750;52.418;20.742;2022-12-16T13:05:50;75.90;;;46.80;;
75171;SDS011;63750;52.418;20.742;2022-12-16T13:11:12;75.60;;;46.80;;
75171;SDS011;63750;52.418;20.742;2022-12-16T13:13:41;73.30;;;47.50;;
75171;SDS011;63750;52.418;20.742;2022-12-16T13:16:10;73.90;;;46.30;;
75171;SDS011;63750;52.418;20.742;2022-12-16T13:21:57;74.80;;;45.60;;
75171;SDS011;63750;52.418;20.742;2022-12-16T13:27:15;77.70;;;48.40;;
75171;SDS011;63750;52.418;20.742;2022-12-16T13:29:44;72.20;;;45.80;;
75171;SDS011;63750;52.418;20.742;2022-12-16T13:32:28;72.20;;;47.00;;
75171;SDS011;63750;52.418;20.742;2022-12-16T13:34:59;87.30;;;53.70;;
75171;SDS011;63750;52.418;20.742;2022-12-16T13:37:28;82.90;;;49.40;;
75171;SDS011;63750;52.418;20.742;2022-12-16T13:40:01;77.30;;;50.30;;
75171;SDS011;63750;52.418;20.742;2022-12-16T13:42:49;83.70;;;50.80;;
75171;SDS011;63750;52.418;20.742;2022-12-16T13:45:31;82.50;;;50.50;;
75171;SDS011;63750;52.418;20.742;2022-12-16T13:48:02;77.30;;;48.20;;
75171;SDS011;63750;52.418;20.742;2022-12-16T13:50:51;79.70;;;48.60;;
75171;SDS011;63750;52.418;20.742;2022-12-16T13:53:19;74.00;;;47.60;;
75171;SDS011;63750;52.418;20.742;2022-12-16T13:55:53;74.00;;;46.70;;
75171;SDS011;63750;52.418;20.742;2022-12-16T13:58:28;73.20;;;47.70;;
75171;SDS011;63750;52.418;20.742;2022-12-16T14:01:04;74.50;;;46.50;;
75171;SDS011;63750;52.418;20.742;2022-12-16T14:03:40;73.40;;;47.00;;
75171;SDS011;63750;52.418;20.742;2022-12-16T14:06:17;68.60;;;45.70;;
75171;SDS011;63750;52.418;20.742;2022-12-16T14:08:49;69.70;;;46.20;;
75171;SDS011;63750;52.418;20.742;2022-12-16T14:11:20;70.20;;;46.80;;
75171;SDS011;63750;52.418;20.742;2022-12-16T14:13:56;73.50;;;45.90;;
75171;SDS011;63750;52.418;20.742;2022-12-16T14:16:34;69.00;;;43.20;;
75171;SDS011;63750;52.418;20.742;2022-12-16T14:19:16;68.00;;;44.20;;
75171;SDS011;63750;52.418;20.742;2022-12-16T14:21:56;69.40;;;45.50;;
75171;SDS011;63750;52.418;20.742;2022-12-16T14:24:31;70.20;;;46.60;;
75171;SDS011;63750;52.418;20.742;2022-12-16T14:27:05;71.60;;;44.90;;
75171;SDS011;63750;52.418;20.742;2022-12-16T14:29:41;72.20;;;45.30;;
75171;SDS011;63750;52.418;20.742;2022-12-16T14:32:23;73.10;;;45.80;;
75171;SDS011;63750;52.418;20.742;2022-12-16T14:35:01;66.30;;;44.00;;
75171;SDS011;63750;52.418;20.742;2022-12-16T14:37:32;67.00;;;44.70;;
75171;SDS011;63750;52.418;20.742;2022-12-16T14:40:03;71.30;;;44.90;;
75171;SDS011;63750;52.418;20.742;2022-12-16T14:42:45;71.00;;;45.90;;
75171;SDS011;63750;52.418;20.742;2022-12-16T14:45:24;64.20;;;43.20;;
75171;SDS011;63750;52.418;20.742;2022-12-16T14:47:59;65.80;;;43.80;;
75171;SDS011;63750;52.418;20.742;2022-12-16T14:50:27;67.10;;;43.70;;
75171;SDS011;63750;52.418;20.742;2022-12-16T14:53:09;70.20;;;45.10;;
75171;SDS011;63750;52.418;20.742;2022-12-16T14:55:41;69.30;;;44.60;;